createdAt,value
2023-12-21T00:00:32.245Z,9.60
2023-12-21T00:03:00.535Z,9.60
2023-12-21T00:05:28.876Z,9.60
2023-12-21T00:07:57.348Z,9.60
2023-12-21T00:10:25.894Z,9.60
2023-12-21T00:12:54.292Z,9.60
2023-12-21T00:15:25.411Z,9.60
2023-12-21T00:17:55.123Z,9.60
2023-12-21T00:20:23.477Z,9.60
2023-12-21T00:22:51.813Z,9.60
2023-12-21T00:25:20.186Z,9.60
2023-12-21T00:27:48.585Z,9.60
2023-12-21T00:30:17.349Z,9.60
2023-12-21T00:32:45.691Z,9.60
2023-12-21T00:35:15.620Z,9.60
2023-12-21T00:37:46.074Z,9.60
2023-12-21T00:40:15.003Z,9.60
2023-12-21T00:42:43.690Z,9.60
2023-12-21T00:45:12.531Z,9.60
2023-12-21T00:47:41.082Z,9.60
2023-12-21T00:50:10.316Z,9.60
2023-12-21T00:52:40.094Z,9.60
2023-12-21T00:55:09.561Z,9.60
2023-12-21T00:57:37.855Z,9.60
2023-12-21T01:00:08.118Z,9.60
2023-12-21T01:02:37.759Z,9.60
2023-12-21T01:05:07.191Z,9.60
2023-12-21T01:07:35.577Z,9.70
2023-12-21T01:10:06.813Z,9.60
2023-12-21T01:12:35.145Z,9.60
2023-12-21T01:15:04.616Z,9.60
2023-12-21T01:17:33.881Z,9.60
2023-12-21T01:20:02.387Z,9.70
2023-12-21T01:22:30.825Z,9.70
2023-12-21T01:24:59.213Z,9.70
2023-12-21T01:27:32.737Z,9.70
2023-12-21T01:30:00.909Z,9.70
2023-12-21T01:32:29.570Z,9.70
2023-12-21T01:34:58.045Z,9.70
2023-12-21T01:37:26.408Z,9.70
2023-12-21T01:39:54.761Z,9.80
2023-12-21T01:42:23.712Z,9.80
2023-12-21T01:44:56.216Z,9.80
2023-12-21T01:47:24.836Z,9.80
2023-12-21T01:49:53.724Z,9.80
2023-12-21T01:52:23.400Z,9.80
2023-12-21T01:54:52.123Z,9.80
2023-12-21T01:57:20.693Z,9.80
2023-12-21T01:59:49.255Z,9.80
2023-12-21T02:02:18.996Z,9.80
2023-12-21T02:04:48.415Z,9.90
2023-12-21T02:07:18.160Z,9.80
2023-12-21T02:09:46.573Z,9.80
2023-12-21T02:12:14.919Z,9.90
2023-12-21T02:14:43.231Z,9.90
2023-12-21T02:17:14.486Z,9.90
2023-12-21T02:19:44.489Z,9.90
2023-12-21T02:22:15.815Z,9.90
2023-12-21T02:24:45.627Z,9.90
2023-12-21T02:27:14.283Z,9.90
2023-12-21T02:29:42.547Z,9.90
2023-12-21T02:32:11.034Z,9.90
2023-12-21T02:34:39.336Z,10.00
2023-12-21T02:37:07.684Z,10.00
2023-12-21T02:39:36.060Z,10.00
2023-12-21T02:42:06.401Z,10.00
2023-12-21T02:44:34.697Z,10.00
2023-12-21T02:47:03.007Z,10.00
2023-12-21T02:49:31.370Z,10.00
2023-12-21T02:51:59.666Z,10.00
2023-12-21T02:54:28.291Z,10.00
2023-12-21T02:56:57.002Z,10.10
2023-12-21T02:59:26.816Z,10.10
2023-12-21T03:01:55.116Z,10.10
2023-12-21T03:04:23.469Z,10.10
2023-12-21T03:06:51.809Z,10.10
2023-12-21T03:09:20.303Z,10.10
2023-12-21T03:11:48.617Z,10.20
2023-12-21T03:14:16.935Z,10.10
2023-12-21T03:16:46.590Z,10.20
2023-12-21T03:19:15.201Z,10.20
2023-12-21T03:21:43.548Z,10.20
2023-12-21T03:24:11.941Z,10.20
2023-12-21T03:26:40.485Z,10.20
2023-12-21T03:29:08.821Z,10.20
2023-12-21T03:31:37.288Z,10.20
2023-12-21T03:34:07.250Z,10.20
2023-12-21T03:36:35.740Z,10.20
2023-12-21T03:39:04.203Z,10.20
2023-12-21T03:41:32.646Z,10.30
2023-12-21T03:44:01.005Z,10.30
2023-12-21T03:46:29.374Z,10.30
2023-12-21T03:48:57.877Z,10.30
2023-12-21T03:51:27.702Z,10.30
2023-12-21T03:53:56.013Z,10.30
2023-12-21T03:56:24.372Z,10.30
2023-12-21T03:58:55.771Z,10.30
2023-12-21T04:01:27.770Z,10.30
2023-12-21T04:03:56.333Z,10.30
2023-12-21T04:06:24.687Z,10.30
2023-12-21T04:08:55.472Z,10.30
2023-12-21T04:11:23.932Z,10.30
2023-12-21T04:13:52.586Z,10.30
2023-12-21T04:16:20.967Z,10.30
2023-12-21T04:18:49.551Z,10.30
2023-12-21T04:21:17.956Z,10.30
2023-12-21T04:23:46.765Z,10.30
2023-12-21T04:26:21.602Z,10.30
2023-12-21T04:28:50.444Z,10.40
2023-12-21T04:31:22.432Z,10.40
2023-12-21T04:33:53.147Z,10.40
2023-12-21T04:36:25.474Z,10.40
2023-12-21T04:38:57.043Z,10.40
2023-12-21T04:41:26.984Z,10.40
2023-12-21T04:43:55.376Z,10.40
2023-12-21T04:46:23.959Z,10.40
2023-12-21T04:48:52.483Z,10.40
2023-12-21T04:51:20.861Z,10.40
2023-12-21T04:53:49.268Z,10.40
2023-12-21T04:56:17.719Z,10.40
2023-12-21T04:58:47.579Z,10.40
2023-12-21T05:01:16.049Z,10.40
2023-12-21T05:03:44.746Z,10.50
2023-12-21T05:06:13.379Z,10.50
2023-12-21T05:08:42.002Z,10.50
2023-12-21T05:11:10.431Z,10.50
2023-12-21T05:13:39.140Z,10.50
2023-12-21T05:16:09.259Z,10.50
2023-12-21T05:18:38.228Z,10.50
2023-12-21T05:21:10.278Z,10.50
2023-12-21T05:23:38.700Z,10.50
2023-12-21T05:26:12.492Z,10.50
2023-12-21T05:28:43.128Z,10.50
2023-12-21T05:31:13.422Z,10.50
2023-12-21T05:33:42.060Z,10.50
2023-12-21T05:36:10.893Z,10.50
2023-12-21T05:38:39.495Z,10.50
2023-12-21T05:41:07.901Z,10.50
2023-12-21T05:43:36.371Z,10.60
2023-12-21T05:46:05.278Z,10.60
2023-12-21T05:48:35.900Z,10.60
2023-12-21T05:51:04.402Z,10.60
2023-12-21T05:53:34.116Z,10.60
2023-12-21T05:56:03.970Z,10.60
2023-12-21T05:58:32.572Z,10.60
2023-12-21T06:01:01.144Z,10.60
2023-12-21T06:03:29.735Z,10.60
2023-12-21T06:05:59.622Z,10.60
2023-12-21T06:08:28.112Z,10.60
2023-12-21T06:10:56.599Z,10.60
2023-12-21T06:13:24.958Z,10.60
2023-12-21T06:15:54.514Z,10.60
2023-12-21T06:18:25.123Z,10.60
2023-12-21T06:20:53.650Z,10.70
2023-12-21T06:23:25.639Z,10.60
2023-12-21T06:25:54.312Z,10.70
2023-12-21T06:28:23.714Z,10.70
2023-12-21T06:30:52.272Z,10.70
2023-12-21T06:33:20.838Z,10.70
2023-12-21T06:35:49.355Z,10.70
2023-12-21T06:38:17.738Z,10.70
2023-12-21T06:40:47.584Z,10.80
2023-12-21T06:43:16.027Z,10.80
2023-12-21T06:45:44.614Z,10.80
2023-12-21T06:48:18.906Z,10.80
2023-12-21T06:51:03.087Z,10.80
2023-12-21T06:53:43.319Z,10.80
2023-12-21T06:59:24.098Z,10.90
2023-12-21T07:01:57.153Z,10.90
2023-12-21T07:07:54.190Z,10.90
2023-12-21T07:10:42.008Z,10.90
2023-12-21T07:13:40.798Z,11.00
2023-12-21T07:19:20.409Z,11.00
2023-12-21T07:21:50.629Z,11.00
2023-12-21T07:24:29.934Z,11.00
2023-12-21T07:27:07.360Z,11.00
2023-12-21T07:29:47.028Z,11.00
2023-12-21T07:35:42.582Z,11.00
2023-12-21T07:36:13.695Z,11.00
2023-12-21T07:39:12.912Z,11.00
2023-12-21T07:45:11.618Z,11.10
2023-12-21T07:47:40.373Z,11.10
2023-12-21T07:50:09.862Z,11.10
2023-12-21T07:52:39.295Z,11.10
2023-12-21T07:55:10.878Z,11.10
2023-12-21T07:57:39.683Z,11.10
2023-12-21T08:00:11.493Z,11.20
2023-12-21T08:02:46.140Z,11.20
2023-12-21T08:05:16.285Z,11.20
2023-12-21T08:07:45.187Z,11.20
2023-12-21T08:10:13.897Z,11.20
2023-12-21T08:12:42.486Z,11.20
2023-12-21T08:15:12.988Z,11.30
2023-12-21T08:17:44.003Z,11.30
2023-12-21T08:20:13.918Z,11.30
2023-12-21T08:22:42.729Z,11.30
2023-12-21T08:25:12.605Z,11.30
2023-12-21T08:27:44.154Z,11.30
2023-12-21T08:30:15.415Z,11.30
2023-12-21T08:32:44.212Z,11.30
2023-12-21T08:35:12.783Z,11.30
2023-12-21T08:37:41.469Z,11.30
2023-12-21T08:40:11.801Z,11.30
2023-12-21T08:42:42.161Z,11.40
2023-12-21T08:45:30.856Z,11.40
2023-12-21T08:47:59.519Z,11.40
2023-12-21T08:50:28.098Z,11.40
2023-12-21T08:53:05.512Z,11.40
2023-12-21T08:55:34.080Z,11.40
2023-12-21T08:58:02.654Z,11.50
2023-12-21T09:00:32.935Z,11.50
2023-12-21T09:03:01.494Z,11.50
2023-12-21T09:05:30.262Z,11.50
2023-12-21T09:07:58.983Z,11.60
2023-12-21T09:10:27.649Z,11.60
2023-12-21T09:12:56.276Z,11.60
2023-12-21T09:15:25.265Z,11.60
2023-12-21T09:17:55.344Z,11.60
2023-12-21T09:20:23.863Z,11.60
2023-12-21T09:22:52.498Z,11.60
2023-12-21T09:25:21.428Z,11.60
2023-12-21T09:27:50.272Z,11.60
2023-12-21T09:30:20.823Z,11.60
2023-12-21T09:32:50.624Z,11.60
2023-12-21T09:35:21.444Z,11.70
2023-12-21T09:37:51.678Z,11.60
2023-12-21T09:40:20.404Z,11.60
2023-12-21T09:43:01.615Z,11.60
2023-12-21T09:45:39.229Z,11.60
2023-12-21T09:48:09.141Z,11.60
2023-12-21T09:50:40.492Z,11.70
2023-12-21T09:53:09.599Z,11.70
2023-12-21T09:55:39.513Z,11.70
2023-12-21T09:58:08.807Z,11.70
2023-12-21T10:00:37.993Z,11.70
2023-12-21T10:03:07.209Z,11.70
2023-12-21T10:05:36.522Z,11.80
2023-12-21T10:08:08.349Z,11.80
2023-12-21T10:10:52.722Z,11.80
2023-12-21T10:13:21.814Z,11.80
2023-12-21T10:16:18.109Z,11.80
2023-12-21T10:18:47.511Z,11.80
2023-12-21T10:21:15.990Z,11.80
2023-12-21T10:23:45.871Z,11.80
2023-12-21T10:26:14.374Z,11.80
2023-12-21T10:28:43.577Z,11.80
2023-12-21T10:31:12.360Z,11.90
2023-12-21T10:33:43.553Z,12.00
2023-12-21T10:36:12.199Z,12.00
2023-12-21T10:38:40.709Z,12.00
2023-12-21T10:41:11.756Z,11.90
2023-12-21T10:43:40.880Z,11.90
2023-12-21T10:46:10.922Z,11.90
2023-12-21T10:48:40.666Z,11.90
2023-12-21T10:51:10.813Z,11.90
2023-12-21T10:53:41.262Z,11.90
2023-12-21T10:56:11.573Z,11.90
2023-12-21T10:58:41.195Z,11.90
2023-12-21T11:01:10.353Z,12.00
2023-12-21T11:03:40.319Z,12.00
2023-12-21T11:06:10.848Z,12.00
2023-12-21T11:08:39.961Z,12.00
2023-12-21T11:11:39.103Z,12.00
2023-12-21T11:14:07.702Z,12.00
2023-12-21T11:16:42.650Z,12.00
2023-12-21T11:21:57.835Z,12.00
2023-12-21T11:24:27.007Z,12.00
2023-12-21T11:27:00.437Z,12.10
2023-12-21T11:29:30.633Z,12.10
2023-12-21T11:31:59.583Z,12.10
2023-12-21T11:34:38.509Z,12.10
2023-12-21T11:37:19.291Z,12.10
2023-12-21T11:39:49.505Z,12.10
2023-12-21T11:42:21.890Z,12.10
2023-12-21T11:44:53.501Z,12.10
2023-12-21T11:47:22.297Z,12.10
2023-12-21T11:49:51.020Z,12.10
2023-12-21T11:52:26.596Z,12.10
2023-12-21T11:54:55.737Z,12.10
2023-12-21T11:57:30.276Z,12.20
2023-12-21T12:00:09.471Z,12.10
2023-12-21T12:02:38.221Z,12.10
2023-12-21T12:05:07.830Z,12.00
2023-12-21T12:07:37.742Z,12.00
2023-12-21T12:10:06.988Z,12.00
2023-12-21T12:12:36.909Z,12.00
2023-12-21T12:15:09.334Z,12.10
2023-12-21T12:17:45.340Z,12.00
2023-12-21T12:20:15.484Z,12.00
2023-12-21T12:22:45.539Z,12.00
2023-12-21T12:25:43.236Z,12.00
2023-12-21T12:28:18.478Z,12.00
2023-12-21T12:30:49.564Z,12.00
2023-12-21T12:33:18.567Z,12.00
2023-12-21T12:35:55.780Z,11.90
2023-12-21T12:41:09.285Z,11.90
2023-12-21T12:43:56.427Z,11.90
2023-12-21T12:46:30.217Z,11.90
2023-12-21T12:49:11.262Z,11.90
2023-12-21T12:51:40.508Z,11.80
2023-12-21T12:54:13.619Z,11.80
2023-12-21T12:57:02.912Z,11.80
2023-12-21T12:59:50.411Z,11.70
2023-12-21T13:02:20.904Z,11.70
2023-12-21T13:04:51.777Z,11.70
2023-12-21T13:07:24.636Z,11.70
2023-12-21T13:10:08.565Z,11.70
2023-12-21T13:12:39.230Z,11.70
2023-12-21T13:15:12.420Z,11.70
2023-12-21T13:17:41.863Z,11.70
2023-12-21T13:20:12.896Z,11.70
2023-12-21T13:22:42.152Z,11.80
2023-12-21T13:25:13.672Z,11.90
2023-12-21T13:27:42.518Z,11.90
2023-12-21T13:30:14.367Z,11.90
2023-12-21T13:32:43.215Z,11.90
2023-12-21T13:35:12.008Z,11.90
2023-12-21T13:37:40.603Z,11.90
2023-12-21T13:40:11.967Z,11.90
2023-12-21T13:42:41.082Z,11.90
2023-12-21T13:45:10.763Z,11.90
2023-12-21T13:47:40.781Z,11.80
2023-12-21T13:50:10.163Z,11.80
2023-12-21T13:52:39.364Z,11.80
2023-12-21T13:55:08.724Z,11.80
2023-12-21T13:57:37.303Z,11.80
2023-12-21T14:00:08.724Z,11.80
2023-12-21T14:02:44.478Z,11.80
2023-12-21T14:05:13.395Z,11.80
2023-12-21T14:07:42.180Z,11.80
2023-12-21T14:10:11.448Z,11.80
2023-12-21T14:12:40.145Z,11.80
2023-12-21T14:15:09.867Z,11.80
2023-12-21T14:17:39.563Z,11.80
2023-12-21T14:20:12.860Z,11.80
2023-12-21T14:22:42.613Z,11.90
2023-12-21T14:25:11.752Z,11.80
2023-12-21T14:28:06.740Z,11.80
2023-12-21T14:30:54.170Z,11.80
2023-12-21T14:33:23.545Z,11.80
2023-12-21T14:35:57.497Z,11.80
2023-12-21T14:38:28.076Z,11.80
2023-12-21T14:40:56.531Z,11.80
2023-12-21T14:43:25.082Z,11.80
2023-12-21T14:50:30.114Z,11.80
2023-12-21T14:53:00.120Z,11.80
2023-12-21T14:55:28.721Z,11.70
2023-12-21T14:57:57.511Z,11.70
2023-12-21T15:00:25.868Z,11.70
2023-12-21T15:03:23.416Z,11.70
2023-12-21T15:05:52.453Z,11.70
2023-12-21T15:08:51.847Z,11.70
2023-12-21T15:11:22.648Z,11.70
2023-12-21T15:13:51.235Z,11.60
2023-12-21T15:16:20.073Z,11.60
2023-12-21T15:18:49.246Z,11.60
2023-12-21T15:21:19.888Z,11.70
2023-12-21T15:23:48.253Z,11.60
2023-12-21T15:26:18.129Z,11.60
2023-12-21T15:28:46.652Z,11.60
2023-12-21T15:31:15.132Z,11.60
2023-12-21T15:33:43.638Z,11.60
2023-12-21T15:36:13.582Z,11.60
2023-12-21T15:38:42.095Z,11.60
2023-12-21T15:41:19.856Z,11.60
2023-12-21T15:43:48.695Z,11.60
2023-12-21T15:46:18.516Z,11.50
2023-12-21T15:48:48.483Z,11.50
2023-12-21T15:51:17.247Z,11.50
2023-12-21T15:54:15.418Z,11.50
2023-12-21T15:56:45.473Z,11.50
2023-12-21T15:59:14.677Z,11.50
2023-12-21T16:01:43.208Z,11.40
2023-12-21T16:04:12.436Z,11.40
2023-12-21T16:06:40.972Z,11.40
2023-12-21T16:09:09.402Z,11.40
2023-12-21T16:11:37.814Z,11.40
2023-12-21T16:14:07.448Z,11.30
2023-12-21T16:16:35.832Z,11.30
2023-12-21T16:19:04.747Z,11.30
2023-12-21T16:21:33.075Z,11.30
2023-12-21T16:24:01.471Z,11.30
2023-12-21T16:26:30.058Z,11.30
2023-12-21T16:32:58.420Z,11.30
2023-12-21T16:35:26.855Z,11.30
2023-12-21T16:37:55.252Z,11.30
2023-12-21T16:40:23.608Z,11.30
2023-12-21T16:42:51.899Z,11.30
2023-12-21T16:45:20.130Z,11.30
2023-12-21T16:47:48.436Z,11.30
2023-12-21T16:50:20.399Z,11.30
2023-12-21T16:53:09.870Z,11.30
2023-12-21T16:55:38.431Z,11.30
2023-12-21T16:58:08.135Z,11.30
2023-12-21T17:00:36.789Z,11.40
2023-12-21T17:03:05.828Z,11.30
2023-12-21T17:05:35.625Z,11.30
2023-12-21T17:08:07.271Z,11.30
2023-12-21T17:10:35.765Z,11.30
2023-12-21T17:13:04.323Z,11.30
2023-12-21T17:15:47.510Z,11.30
2023-12-21T17:18:16.476Z,11.30
2023-12-21T17:20:46.383Z,11.30
2023-12-21T17:23:17.082Z,11.30
2023-12-21T17:25:45.547Z,11.30
2023-12-21T17:28:21.545Z,11.30
2023-12-21T17:30:54.235Z,11.30
2023-12-21T17:33:22.920Z,11.30
2023-12-21T17:40:25.004Z,11.30
2023-12-21T17:42:53.603Z,11.30
2023-12-21T17:45:25.599Z,11.30
2023-12-21T17:47:54.345Z,11.30
2023-12-21T17:50:22.829Z,11.40
2023-12-21T17:53:06.321Z,11.40
2023-12-21T17:55:37.904Z,11.40
2023-12-21T17:58:06.643Z,11.40
2023-12-21T18:00:35.427Z,11.40
2023-12-21T18:03:14.926Z,11.40
2023-12-21T18:08:38.924Z,11.40
2023-12-21T18:11:12.444Z,11.40
2023-12-21T18:13:41.482Z,11.40
2023-12-21T18:16:11.218Z,11.40
2023-12-21T18:19:17.629Z,11.40
2023-12-21T18:21:55.783Z,11.40
2023-12-21T18:24:32.549Z,11.40
2023-12-21T18:27:02.998Z,11.50
2023-12-21T18:29:31.553Z,11.50
2023-12-21T18:32:05.590Z,11.50
2023-12-21T18:34:34.286Z,11.50
2023-12-21T18:37:04.392Z,11.50
2023-12-21T18:39:32.991Z,11.50
2023-12-21T18:42:02.728Z,11.50
2023-12-21T18:45:10.581Z,11.50
2023-12-21T18:47:39.232Z,11.60
2023-12-21T18:50:09.227Z,11.60
2023-12-21T18:52:38.722Z,11.60
2023-12-21T18:55:07.627Z,11.60
2023-12-21T18:57:38.016Z,11.60
2023-12-21T19:00:57.514Z,11.60
2023-12-21T19:03:26.604Z,11.60
2023-12-21T19:05:57.875Z,11.60
2023-12-21T19:08:26.423Z,11.60
2023-12-21T19:12:10.660Z,11.60
2023-12-21T19:15:01.219Z,11.60
2023-12-21T19:17:29.867Z,11.50
2023-12-21T19:19:58.731Z,11.50
2023-12-21T19:22:27.135Z,11.50
2023-12-21T19:25:23.615Z,11.50
2023-12-21T19:27:52.354Z,11.50
2023-12-21T19:30:23.843Z,11.50
2023-12-21T19:32:52.839Z,11.50
2023-12-21T19:35:22.138Z,11.50
2023-12-21T19:37:52.013Z,11.50
2023-12-21T19:40:21.407Z,11.50
2023-12-21T19:42:51.238Z,11.50
2023-12-21T19:45:21.738Z,11.60
2023-12-21T19:47:50.604Z,11.60
2023-12-21T19:50:19.374Z,11.60
2023-12-21T19:52:48.938Z,11.50
2023-12-21T19:55:17.556Z,11.60
2023-12-21T19:57:46.649Z,11.60
2023-12-21T20:00:17.572Z,11.50
2023-12-21T20:03:19.084Z,11.50
2023-12-21T20:05:49.184Z,11.50
2023-12-21T20:08:17.676Z,11.60
2023-12-21T20:10:58.653Z,11.50
2023-12-21T20:13:27.417Z,11.50
2023-12-21T20:15:55.984Z,11.60
2023-12-21T20:18:33.624Z,11.60
2023-12-21T20:21:04.397Z,11.60
2023-12-21T20:26:16.182Z,11.60
2023-12-21T20:28:45.457Z,11.60
2023-12-21T20:31:14.021Z,11.60
2023-12-21T20:33:42.526Z,11.60
2023-12-21T20:36:26.293Z,11.60
2023-12-21T20:38:54.787Z,11.60
2023-12-21T20:41:23.275Z,11.60
2023-12-21T20:43:55.255Z,11.60
2023-12-21T20:46:23.977Z,11.60
2023-12-21T20:48:52.502Z,11.60
2023-12-21T20:52:18.193Z,11.60
2023-12-21T20:55:05.986Z,11.60
2023-12-21T20:57:34.931Z,11.60
2023-12-21T21:00:04.709Z,11.60
2023-12-21T21:02:34.843Z,11.70
2023-12-21T21:05:04.393Z,11.70
2023-12-21T21:07:42.915Z,11.60
2023-12-21T21:10:11.716Z,11.70
2023-12-21T21:12:40.281Z,11.60
2023-12-21T21:15:24.336Z,11.60
2023-12-21T21:17:53.225Z,11.70
2023-12-21T21:20:30.516Z,11.70
2023-12-21T21:23:01.105Z,11.70
2023-12-21T21:25:29.618Z,11.70
2023-12-21T21:27:59.923Z,11.70
2023-12-21T21:30:55.486Z,11.70
2023-12-21T21:33:17.347Z,11.70
2023-12-21T21:38:29.788Z,11.70
2023-12-21T21:41:00.755Z,11.70
2023-12-21T21:43:42.537Z,11.80
2023-12-21T21:46:11.651Z,11.70
2023-12-21T21:48:43.044Z,11.70
2023-12-21T21:51:14.817Z,11.70
2023-12-21T21:53:46.216Z,11.70
2023-12-21T21:56:28.655Z,11.70
2023-12-21T21:59:01.492Z,11.70
2023-12-21T22:01:30.421Z,11.70
2023-12-21T22:04:02.776Z,11.70
2023-12-21T22:06:31.622Z,11.80
2023-12-21T22:09:01.595Z,11.80
2023-12-21T22:11:30.114Z,11.70
2023-12-21T22:13:58.576Z,11.70
2023-12-21T22:16:27.120Z,11.70
2023-12-21T22:18:55.571Z,11.70
2023-12-21T22:21:24.053Z,11.70
2023-12-21T22:23:52.460Z,11.70
2023-12-21T22:26:47.899Z,11.70
2023-12-21T22:29:16.314Z,11.70
2023-12-21T22:31:44.941Z,11.60
2023-12-21T22:34:13.493Z,11.70
2023-12-21T22:36:42.348Z,11.70
2023-12-21T22:39:10.803Z,11.70
2023-12-21T22:41:39.171Z,11.60
2023-12-21T22:44:09.848Z,11.60
2023-12-21T22:46:38.405Z,11.60
2023-12-21T22:49:06.918Z,11.60
2023-12-21T22:51:35.388Z,11.60
2023-12-21T22:54:03.854Z,11.60
2023-12-21T22:56:32.204Z,11.50
2023-12-21T22:59:00.665Z,11.50
2023-12-21T23:01:30.446Z,11.50
2023-12-21T23:03:58.813Z,11.40
2023-12-21T23:06:27.186Z,11.40
2023-12-21T23:08:55.493Z,11.40
2023-12-21T23:11:23.852Z,11.40
2023-12-21T23:13:52.360Z,11.30
2023-12-21T23:16:22.541Z,11.30
2023-12-21T23:18:52.507Z,11.30
2023-12-21T23:21:21.076Z,11.30
2023-12-21T23:23:49.530Z,11.30
2023-12-21T23:26:19.436Z,11.30
2023-12-21T23:28:48.109Z,11.20
2023-12-21T23:31:16.557Z,11.30
2023-12-21T23:33:45.098Z,11.20
2023-12-21T23:36:15.877Z,11.20
2023-12-21T23:38:44.262Z,11.20
2023-12-21T23:41:12.946Z,11.20
2023-12-21T23:43:41.468Z,11.20
2023-12-21T23:46:09.880Z,11.20
2023-12-21T23:48:38.312Z,11.20
2023-12-21T23:51:06.693Z,11.20
2023-12-21T23:53:36.396Z,11.20
2023-12-21T23:56:05.146Z,11.20
2023-12-21T23:58:33.573Z,11.20
